UPS553 CYQX-CYYC
Flight info
| Callsign | UPS553 |
|---|---|
| Flight time | N/A |
| Altitude | 36000 |
| Route | YQX DCT NAPLO DCT 5370N DCT VIRSO DCT 5490N DCT 53N00 DCT BORIX DCT UDPAV BIRKO6 |
| Aircraft | A343/H-SDE2E3FGHIJ4J5M1RWXY/LB1D1 |
Departure
| Time | 2026-04-24 14:58 |
|---|---|
| Airport | Gander International Airport (CYQX) |
Arrival
| Time | N/A |
|---|---|
| Airport | Calgary International Airport (CYYC) |
| Time | Latitude | Longitude | Altitude | Speed | Heading |
|---|---|---|---|---|---|
| 2026-04-24 14:39 | 48.94672 | -54.57114 | 457 ft | 0 kts | 202° |
| 2026-04-24 14:47 | 48.94674 | -54.57112 | 457 ft | 0 kts | 202° |
| 2026-04-24 14:48 | 48.94682 | -54.57108 | 457 ft | 2 kts | 188° |
| 2026-04-24 14:48 | 48.94698 | -54.57104 | 457 ft | 2 kts | 175° |
| 2026-04-24 14:48 | 48.94714 | -54.57109 | 458 ft | 2 kts | 139° |
| 2026-04-24 14:48 | 48.94725 | -54.57127 | 458 ft | 2 kts | 114° |
| 2026-04-24 14:49 | 48.94729 | -54.57141 | 458 ft | 1 kts | 108° |
| 2026-04-24 14:49 | 48.94730 | -54.57142 | 458 ft | 0 kts | 108° |
| 2026-04-24 14:51 | 48.94714 | -54.57085 | 457 ft | 13 kts | 115° |
| 2026-04-24 14:51 | 48.94626 | -54.57008 | 456 ft | 18 kts | 175° |
| 2026-04-24 14:52 | 48.94488 | -54.56941 | 454 ft | 24 kts | 153° |
| 2026-04-24 14:52 | 48.94329 | -54.56817 | 454 ft | 28 kts | 153° |
| 2026-04-24 14:52 | 48.94168 | -54.56692 | 454 ft | 24 kts | 153° |
| 2026-04-24 14:52 | 48.94017 | -54.56586 | 456 ft | 24 kts | 162° |
| 2026-04-24 14:53 | 48.93848 | -54.56609 | 458 ft | 26 kts | 191° |
| 2026-04-24 14:53 | 48.93670 | -54.56661 | 459 ft | 26 kts | 191° |
| 2026-04-24 14:53 | 48.93498 | -54.56709 | 461 ft | 25 kts | 190° |
| 2026-04-24 14:53 | 48.93340 | -54.56754 | 461 ft | 24 kts | 191° |
| 2026-04-24 14:54 | 48.93167 | -54.56806 | 465 ft | 27 kts | 191° |
| 2026-04-24 14:54 | 48.93003 | -54.56854 | 466 ft | 24 kts | 191° |
| 2026-04-24 14:54 | 48.92855 | -54.56846 | 468 ft | 18 kts | 152° |
| 2026-04-24 14:54 | 48.92748 | -54.56723 | 468 ft | 19 kts | 125° |
| 2026-04-24 14:55 | 48.92701 | -54.56634 | 468 ft | 15 kts | 158° |
| 2026-04-24 14:55 | 48.92537 | -54.56654 | 471 ft | 20 kts | 191° |
| 2026-04-24 14:55 | 48.92390 | -54.56696 | 468 ft | 24 kts | 191° |
| 2026-04-24 14:55 | 48.92231 | -54.56751 | 473 ft | 23 kts | 200° |
| 2026-04-24 14:56 | 48.92127 | -54.56826 | 469 ft | 10 kts | 181° |
| 2026-04-24 14:56 | 48.92114 | -54.56798 | 475 ft | 3 kts | 88° |
| 2026-04-24 14:56 | 48.92149 | -54.56765 | 471 ft | 9 kts | 9° |
| 2026-04-24 14:56 | 48.92154 | -54.56764 | 475 ft | 0 kts | 8° |
| 2026-04-24 14:57 | 48.92219 | -54.56747 | 469 ft | 29 kts | 10° |
| 2026-04-24 14:57 | 48.92608 | -54.56634 | 469 ft | 84 kts | 11° |
| 2026-04-24 14:57 | 48.93337 | -54.56426 | 463 ft | 128 kts | 10° |
| 2026-04-24 14:57 | 48.94342 | -54.56134 | 478 ft | 160 kts | 9° |
| 2026-04-24 14:58 | 48.95390 | -54.55857 | 1055 ft | 148 kts | 8° |
| 2026-04-24 14:58 | 48.96417 | -54.55607 | 1410 ft | 154 kts | 8° |
| 2026-04-24 14:58 | 48.97493 | -54.55364 | 1781 ft | 158 kts | 2° |
| 2026-04-24 14:58 | 48.98603 | -54.55194 | 2216 ft | 161 kts | 7° |
| 2026-04-24 14:59 | 48.99709 | -54.54848 | 2671 ft | 167 kts | 16° |
| 2026-04-24 14:59 | 49.00890 | -54.54396 | 2927 ft | 184 kts | 15° |
| 2026-04-24 14:59 | 49.01766 | -54.54120 | 3112 ft | 198 kts | 10° |
| 2026-04-24 14:59 | 49.03236 | -54.54295 | 3276 ft | 229 kts | 343° |
| 2026-04-24 15:00 | 49.04606 | -54.55753 | 3653 ft | 252 kts | 316° |
| 2026-04-24 15:00 | 49.05676 | -54.57908 | 4253 ft | 263 kts | 304° |
| 2026-04-24 15:00 | 49.06561 | -54.60399 | 4888 ft | 271 kts | 298° |
| 2026-04-24 15:00 | 49.07364 | -54.63035 | 5574 ft | 276 kts | 296° |
| 2026-04-24 15:01 | 49.08166 | -54.65733 | 6237 ft | 281 kts | 297° |
| 2026-04-24 15:01 | 49.09005 | -54.68458 | 6895 ft | 286 kts | 298° |
| 2026-04-24 15:01 | 49.09887 | -54.71196 | 7575 ft | 289 kts | 299° |
| 2026-04-24 15:01 | 49.10809 | -54.73944 | 8247 ft | 292 kts | 300° |
| 2026-04-24 15:02 | 49.11761 | -54.76711 | 8867 ft | 296 kts | 300° |
| 2026-04-24 15:02 | 49.12723 | -54.79472 | 9500 ft | 300 kts | 300° |
| 2026-04-24 15:02 | 49.13709 | -54.82297 | 10140 ft | 302 kts | 300° |
| 2026-04-24 15:02 | 49.14716 | -54.85190 | 10498 ft | 316 kts | 299° |
| 2026-04-24 15:03 | 49.15769 | -54.88231 | 10767 ft | 332 kts | 299° |
| 2026-04-24 15:03 | 49.16870 | -54.91425 | 11020 ft | 346 kts | 299° |
| 2026-04-24 15:03 | 49.18016 | -54.94749 | 11268 ft | 360 kts | 299° |
| 2026-04-24 15:03 | 49.19194 | -54.98179 | 11665 ft | 368 kts | 298° |
| 2026-04-24 15:04 | 49.20388 | -55.01668 | 12217 ft | 371 kts | 298° |
| 2026-04-24 15:04 | 49.21590 | -55.05177 | 12756 ft | 375 kts | 298° |
| 2026-04-24 15:04 | 49.22809 | -55.08733 | 13301 ft | 379 kts | 298° |
| 2026-04-24 15:04 | 49.24036 | -55.12314 | 13840 ft | 382 kts | 297° |
| 2026-04-24 15:05 | 49.25279 | -55.15950 | 14376 ft | 386 kts | 297° |
| 2026-04-24 15:05 | 49.26525 | -55.19601 | 14901 ft | 389 kts | 297° |
| 2026-04-24 15:05 | 49.27781 | -55.23293 | 15407 ft | 392 kts | 297° |
| 2026-04-24 15:05 | 49.29029 | -55.26966 | 15904 ft | 395 kts | 296° |
| 2026-04-24 15:06 | 49.30300 | -55.30719 | 16401 ft | 399 kts | 296° |
| 2026-04-24 15:06 | 49.31585 | -55.34514 | 16890 ft | 402 kts | 296° |
| 2026-04-24 15:06 | 49.32875 | -55.38333 | 17375 ft | 405 kts | 296° |
| 2026-04-24 15:06 | 49.34178 | -55.42189 | 17844 ft | 408 kts | 295° |
| 2026-04-24 15:07 | 49.35486 | -55.46068 | 18321 ft | 411 kts | 295° |
| 2026-04-24 15:07 | 49.36804 | -55.49977 | 18786 ft | 414 kts | 295° |
| 2026-04-24 15:07 | 49.38132 | -55.53925 | 19200 ft | 419 kts | 296° |
| 2026-04-24 15:07 | 49.39478 | -55.57934 | 19479 ft | 426 kts | 296° |
| 2026-04-24 15:08 | 49.40842 | -55.61998 | 19943 ft | 427 kts | 296° |
| 2026-04-24 15:08 | 49.42205 | -55.66065 | 20418 ft | 429 kts | 295° |
| 2026-04-24 15:08 | 49.43573 | -55.70157 | 20870 ft | 431 kts | 295° |
| 2026-04-24 15:08 | 49.44942 | -55.74259 | 21313 ft | 432 kts | 295° |
| 2026-04-24 15:09 | 49.46316 | -55.78382 | 21757 ft | 434 kts | 294° |
| 2026-04-24 15:09 | 49.47678 | -55.82479 | 22167 ft | 436 kts | 294° |
| 2026-04-24 15:09 | 49.49057 | -55.86633 | 22595 ft | 437 kts | 294° |
| 2026-04-24 15:09 | 49.50440 | -55.90807 | 22982 ft | 439 kts | 294° |
| 2026-04-24 15:10 | 49.51829 | -55.94999 | 23377 ft | 440 kts | 294° |
| 2026-04-24 15:10 | 49.53219 | -55.99201 | 23750 ft | 442 kts | 293° |
| 2026-04-24 15:10 | 49.54615 | -56.03437 | 24102 ft | 443 kts | 293° |
| 2026-04-24 15:10 | 49.56011 | -56.07680 | 24433 ft | 446 kts | 293° |
| 2026-04-24 15:11 | 49.57419 | -56.11969 | 24717 ft | 449 kts | 293° |
| 2026-04-24 15:11 | 49.58835 | -56.16286 | 24989 ft | 452 kts | 294° |
| 2026-04-24 15:11 | 49.60257 | -56.20625 | 25268 ft | 455 kts | 294° |
| 2026-04-24 15:11 | 49.61686 | -56.24991 | 25533 ft | 458 kts | 294° |
| 2026-04-24 15:12 | 49.63122 | -56.29386 | 25817 ft | 461 kts | 294° |
| 2026-04-24 15:12 | 49.66019 | -56.38278 | 26323 ft | 466 kts | 294° |
| 2026-04-24 15:12 | 49.67478 | -56.42767 | 26572 ft | 469 kts | 294° |
| 2026-04-24 15:13 | 49.68942 | -56.47283 | 26838 ft | 471 kts | 294° |
| 2026-04-24 15:13 | 49.70411 | -56.51819 | 27074 ft | 473 kts | 294° |
| 2026-04-24 15:13 | 49.71872 | -56.56346 | 27291 ft | 477 kts | 295° |
| 2026-04-24 15:13 | 49.73360 | -56.60946 | 27537 ft | 479 kts | 295° |
| 2026-04-24 15:14 | 49.74847 | -56.65561 | 27778 ft | 481 kts | 295° |
| 2026-04-24 15:14 | 49.76335 | -56.70201 | 27986 ft | 483 kts | 295° |
| 2026-04-24 15:14 | 49.77830 | -56.74868 | 28199 ft | 485 kts | 295° |
| 2026-04-24 15:14 | 49.79333 | -56.79561 | 28416 ft | 487 kts | 295° |